sensor_id;sensor_type;location;lat;lon;timestamp;P1;durP1;ratioP1;P2;durP2;ratioP2
12048;SDS011;6085;49.452;8.502;2023-03-01T00:03:13;9.18;;;6.57;;
12048;SDS011;6085;49.452;8.502;2023-03-01T00:07:15;7.30;;;6.53;;
12048;SDS011;6085;49.452;8.502;2023-03-01T00:11:19;9.23;;;7.05;;
12048;SDS011;6085;49.452;8.502;2023-03-01T00:15:23;8.93;;;6.70;;
12048;SDS011;6085;49.452;8.502;2023-03-01T00:19:25;10.07;;;7.43;;
12048;SDS011;6085;49.452;8.502;2023-03-01T00:23:27;9.57;;;6.47;;
12048;SDS011;6085;49.452;8.502;2023-03-01T00:27:30;7.32;;;6.28;;
12048;SDS011;6085;49.452;8.502;2023-03-01T00:31:33;11.30;;;7.22;;
12048;SDS011;6085;49.452;8.502;2023-03-01T00:35:35;12.73;;;8.10;;
12048;SDS011;6085;49.452;8.502;2023-03-01T00:39:37;9.43;;;7.25;;
12048;SDS011;6085;49.452;8.502;2023-03-01T00:43:40;10.35;;;7.53;;
12048;SDS011;6085;49.452;8.502;2023-03-01T00:47:42;9.95;;;7.63;;
12048;SDS011;6085;49.452;8.502;2023-03-01T00:51:44;10.02;;;7.43;;
12048;SDS011;6085;49.452;8.502;2023-03-01T00:55:45;7.80;;;6.63;;
12048;SDS011;6085;49.452;8.502;2023-03-01T00:59:49;10.57;;;7.30;;
12048;SDS011;6085;49.452;8.502;2023-03-01T01:03:52;8.88;;;6.60;;
12048;SDS011;6085;49.452;8.502;2023-03-01T01:07:56;9.40;;;7.20;;
12048;SDS011;6085;49.452;8.502;2023-03-01T01:11:57;11.48;;;7.57;;
12048;SDS011;6085;49.452;8.502;2023-03-01T01:16:01;10.75;;;7.35;;
12048;SDS011;6085;49.452;8.502;2023-03-01T01:20:04;12.75;;;7.93;;
12048;SDS011;6085;49.452;8.502;2023-03-01T01:24:07;13.55;;;7.97;;
12048;SDS011;6085;49.452;8.502;2023-03-01T01:28:10;10.85;;;8.02;;
12048;SDS011;6085;49.452;8.502;2023-03-01T01:32:13;10.93;;;7.32;;
12048;SDS011;6085;49.452;8.502;2023-03-01T01:36:14;13.05;;;7.32;;
12048;SDS011;6085;49.452;8.502;2023-03-01T01:40:17;12.20;;;8.00;;
12048;SDS011;6085;49.452;8.502;2023-03-01T01:44:20;14.43;;;8.65;;
12048;SDS011;6085;49.452;8.502;2023-03-01T01:48:27;10.55;;;8.00;;
12048;SDS011;6085;49.452;8.502;2023-03-01T01:52:40;10.73;;;8.27;;
12048;SDS011;6085;49.452;8.502;2023-03-01T01:56:42;12.30;;;8.27;;
12048;SDS011;6085;49.452;8.502;2023-03-01T02:00:49;9.90;;;7.97;;
12048;SDS011;6085;49.452;8.502;2023-03-01T02:04:54;13.00;;;7.85;;
12048;SDS011;6085;49.452;8.502;2023-03-01T02:09:06;12.80;;;7.75;;
12048;SDS011;6085;49.452;8.502;2023-03-01T02:13:12;10.48;;;8.05;;
12048;SDS011;6085;49.452;8.502;2023-03-01T02:17:15;13.38;;;8.25;;
12048;SDS011;6085;49.452;8.502;2023-03-01T02:21:23;12.45;;;8.65;;
12048;SDS011;6085;49.452;8.502;2023-03-01T02:25:35;11.68;;;8.55;;
12048;SDS011;6085;49.452;8.502;2023-03-01T02:29:45;13.30;;;8.30;;
12048;SDS011;6085;49.452;8.502;2023-03-01T02:33:47;11.18;;;8.50;;
12048;SDS011;6085;49.452;8.502;2023-03-01T02:37:49;11.23;;;8.38;;
12048;SDS011;6085;49.452;8.502;2023-03-01T02:41:52;12.68;;;8.70;;
12048;SDS011;6085;49.452;8.502;2023-03-01T02:45:57;13.07;;;8.95;;
12048;SDS011;6085;49.452;8.502;2023-03-01T02:50:00;12.30;;;8.40;;
12048;SDS011;6085;49.452;8.502;2023-03-01T02:54:06;12.32;;;8.82;;
12048;SDS011;6085;49.452;8.502;2023-03-01T02:58:14;14.07;;;9.30;;
12048;SDS011;6085;49.452;8.502;2023-03-01T03:02:20;13.20;;;8.73;;
12048;SDS011;6085;49.452;8.502;2023-03-01T03:06:35;13.35;;;8.82;;
12048;SDS011;6085;49.452;8.502;2023-03-01T03:10:38;15.77;;;9.15;;
12048;SDS011;6085;49.452;8.502;2023-03-01T03:14:42;11.70;;;8.27;;
12048;SDS011;6085;49.452;8.502;2023-03-01T03:18:46;16.98;;;9.32;;
12048;SDS011;6085;49.452;8.502;2023-03-01T03:22:48;12.52;;;8.43;;
12048;SDS011;6085;49.452;8.502;2023-03-01T03:26:52;10.95;;;7.70;;
12048;SDS011;6085;49.452;8.502;2023-03-01T03:30:54;12.13;;;9.02;;
12048;SDS011;6085;49.452;8.502;2023-03-01T03:34:57;12.43;;;8.65;;
12048;SDS011;6085;49.452;8.502;2023-03-01T03:38:59;12.32;;;8.93;;
12048;SDS011;6085;49.452;8.502;2023-03-01T03:43:01;13.30;;;9.70;;
12048;SDS011;6085;49.452;8.502;2023-03-01T03:47:03;12.00;;;8.48;;
12048;SDS011;6085;49.452;8.502;2023-03-01T03:51:06;14.38;;;8.82;;
12048;SDS011;6085;49.452;8.502;2023-03-01T03:55:11;12.68;;;9.30;;
12048;SDS011;6085;49.452;8.502;2023-03-01T03:59:14;12.05;;;8.45;;
12048;SDS011;6085;49.452;8.502;2023-03-01T04:03:16;12.73;;;8.80;;
12048;SDS011;6085;49.452;8.502;2023-03-01T04:07:21;12.82;;;9.35;;
12048;SDS011;6085;49.452;8.502;2023-03-01T04:11:23;14.55;;;9.45;;
12048;SDS011;6085;49.452;8.502;2023-03-01T04:15:28;12.23;;;8.95;;
12048;SDS011;6085;49.452;8.502;2023-03-01T04:19:31;15.02;;;9.73;;
12048;SDS011;6085;49.452;8.502;2023-03-01T04:23:37;16.35;;;10.30;;
12048;SDS011;6085;49.452;8.502;2023-03-01T04:27:40;13.57;;;8.93;;
12048;SDS011;6085;49.452;8.502;2023-03-01T04:31:42;12.77;;;9.40;;
12048;SDS011;6085;49.452;8.502;2023-03-01T04:35:44;14.18;;;9.68;;
12048;SDS011;6085;49.452;8.502;2023-03-01T04:39:50;15.02;;;10.27;;
12048;SDS011;6085;49.452;8.502;2023-03-01T04:43:52;15.15;;;9.32;;
12048;SDS011;6085;49.452;8.502;2023-03-01T04:47:54;15.00;;;9.73;;
12048;SDS011;6085;49.452;8.502;2023-03-01T04:51:58;12.98;;;9.27;;
12048;SDS011;6085;49.452;8.502;2023-03-01T04:56:03;14.00;;;9.45;;
12048;SDS011;6085;49.452;8.502;2023-03-01T05:00:07;15.00;;;9.77;;
12048;SDS011;6085;49.452;8.502;2023-03-01T05:04:20;15.18;;;9.55;;
12048;SDS011;6085;49.452;8.502;2023-03-01T05:08:22;16.05;;;10.30;;
12048;SDS011;6085;49.452;8.502;2023-03-01T05:12:26;14.80;;;10.02;;
12048;SDS011;6085;49.452;8.502;2023-03-01T05:16:27;17.92;;;10.88;;
12048;SDS011;6085;49.452;8.502;2023-03-01T05:20:30;15.80;;;10.10;;
12048;SDS011;6085;49.452;8.502;2023-03-01T05:24:33;15.38;;;10.02;;
12048;SDS011;6085;49.452;8.502;2023-03-01T05:28:37;13.63;;;9.55;;
12048;SDS011;6085;49.452;8.502;2023-03-01T05:32:40;14.30;;;10.48;;
12048;SDS011;6085;49.452;8.502;2023-03-01T05:36:44;13.90;;;10.05;;
12048;SDS011;6085;49.452;8.502;2023-03-01T05:40:47;15.15;;;10.65;;
12048;SDS011;6085;49.452;8.502;2023-03-01T05:44:51;16.75;;;10.55;;
12048;SDS011;6085;49.452;8.502;2023-03-01T05:48:55;14.55;;;10.30;;
12048;SDS011;6085;49.452;8.502;2023-03-01T05:52:59;16.13;;;9.90;;
12048;SDS011;6085;49.452;8.502;2023-03-01T05:57:04;14.73;;;10.27;;
12048;SDS011;6085;49.452;8.502;2023-03-01T06:01:10;16.15;;;11.18;;
12048;SDS011;6085;49.452;8.502;2023-03-01T06:05:13;13.88;;;10.35;;
12048;SDS011;6085;49.452;8.502;2023-03-01T06:09:15;14.93;;;10.93;;
12048;SDS011;6085;49.452;8.502;2023-03-01T06:13:17;14.48;;;9.93;;
12048;SDS011;6085;49.452;8.502;2023-03-01T06:17:20;16.67;;;10.73;;
12048;SDS011;6085;49.452;8.502;2023-03-01T06:21:22;15.60;;;10.32;;
12048;SDS011;6085;49.452;8.502;2023-03-01T06:25:24;15.63;;;10.75;;
12048;SDS011;6085;49.452;8.502;2023-03-01T06:29:27;15.50;;;10.13;;
12048;SDS011;6085;49.452;8.502;2023-03-01T06:33:30;17.58;;;10.50;;
12048;SDS011;6085;49.452;8.502;2023-03-01T06:37:32;16.25;;;10.80;;
12048;SDS011;6085;49.452;8.502;2023-03-01T06:41:35;17.45;;;10.48;;
12048;SDS011;6085;49.452;8.502;2023-03-01T06:45:37;14.70;;;9.90;;
12048;SDS011;6085;49.452;8.502;2023-03-01T06:49:40;15.52;;;10.43;;
12048;SDS011;6085;49.452;8.502;2023-03-01T06:53:42;15.40;;;10.40;;
12048;SDS011;6085;49.452;8.502;2023-03-01T06:57:44;15.35;;;10.48;;
12048;SDS011;6085;49.452;8.502;2023-03-01T07:01:46;13.60;;;9.82;;
12048;SDS011;6085;49.452;8.502;2023-03-01T07:05:50;14.45;;;10.02;;
12048;SDS011;6085;49.452;8.502;2023-03-01T07:09:52;14.73;;;10.70;;
12048;SDS011;6085;49.452;8.502;2023-03-01T07:13:54;14.60;;;10.25;;
12048;SDS011;6085;49.452;8.502;2023-03-01T07:17:56;14.57;;;9.65;;
12048;SDS011;6085;49.452;8.502;2023-03-01T07:22:00;14.45;;;9.90;;
12048;SDS011;6085;49.452;8.502;2023-03-01T07:26:07;13.68;;;9.70;;
12048;SDS011;6085;49.452;8.502;2023-03-01T07:30:10;14.13;;;10.23;;
12048;SDS011;6085;49.452;8.502;2023-03-01T07:34:15;13.13;;;9.73;;
12048;SDS011;6085;49.452;8.502;2023-03-01T07:38:18;14.30;;;10.68;;
12048;SDS011;6085;49.452;8.502;2023-03-01T07:42:20;13.35;;;9.95;;
12048;SDS011;6085;49.452;8.502;2023-03-01T07:46:21;13.18;;;10.48;;
12048;SDS011;6085;49.452;8.502;2023-03-01T07:50:23;14.82;;;9.75;;
12048;SDS011;6085;49.452;8.502;2023-03-01T07:54:26;14.88;;;10.75;;
12048;SDS011;6085;49.452;8.502;2023-03-01T07:58:31;14.73;;;9.88;;
12048;SDS011;6085;49.452;8.502;2023-03-01T08:02:35;13.50;;;9.93;;
12048;SDS011;6085;49.452;8.502;2023-03-01T08:06:37;13.50;;;10.00;;
12048;SDS011;6085;49.452;8.502;2023-03-01T08:10:40;14.63;;;10.40;;
12048;SDS011;6085;49.452;8.502;2023-03-01T08:14:42;16.13;;;10.25;;
12048;SDS011;6085;49.452;8.502;2023-03-01T08:18:44;11.82;;;9.55;;
12048;SDS011;6085;49.452;8.502;2023-03-01T08:22:46;13.88;;;9.65;;
12048;SDS011;6085;49.452;8.502;2023-03-01T08:26:49;11.23;;;9.25;;
12048;SDS011;6085;49.452;8.502;2023-03-01T08:30:51;14.15;;;9.95;;
12048;SDS011;6085;49.452;8.502;2023-03-01T08:34:53;13.90;;;10.15;;
12048;SDS011;6085;49.452;8.502;2023-03-01T08:38:55;13.63;;;9.93;;
12048;SDS011;6085;49.452;8.502;2023-03-01T08:42:58;12.57;;;9.85;;
12048;SDS011;6085;49.452;8.502;2023-03-01T08:47:00;13.18;;;10.07;;
12048;SDS011;6085;49.452;8.502;2023-03-01T08:51:08;10.90;;;9.80;;
12048;SDS011;6085;49.452;8.502;2023-03-01T08:55:10;10.95;;;9.43;;
12048;SDS011;6085;49.452;8.502;2023-03-01T08:59:15;26.15;;;11.38;;
12048;SDS011;6085;49.452;8.502;2023-03-01T09:03:18;11.93;;;9.93;;
12048;SDS011;6085;49.452;8.502;2023-03-01T09:07:20;15.68;;;9.82;;
12048;SDS011;6085;49.452;8.502;2023-03-01T09:11:22;12.10;;;10.23;;
12048;SDS011;6085;49.452;8.502;2023-03-01T09:15:25;11.50;;;10.30;;
12048;SDS011;6085;49.452;8.502;2023-03-01T09:19:27;14.32;;;11.35;;
12048;SDS011;6085;49.452;8.502;2023-03-01T09:23:28;13.07;;;10.80;;
12048;SDS011;6085;49.452;8.502;2023-03-01T09:27:30;12.15;;;10.27;;
12048;SDS011;6085;49.452;8.502;2023-03-01T09:31:33;11.65;;;10.43;;
12048;SDS011;6085;49.452;8.502;2023-03-01T09:35:35;14.27;;;11.13;;
12048;SDS011;6085;49.452;8.502;2023-03-01T09:39:37;11.20;;;9.95;;
12048;SDS011;6085;49.452;8.502;2023-03-01T09:43:41;13.45;;;11.48;;
12048;SDS011;6085;49.452;8.502;2023-03-01T09:47:48;15.30;;;11.50;;
12048;SDS011;6085;49.452;8.502;2023-03-01T09:51:54;15.40;;;11.38;;
12048;SDS011;6085;49.452;8.502;2023-03-01T09:55:58;11.98;;;10.77;;
12048;SDS011;6085;49.452;8.502;2023-03-01T10:00:10;12.02;;;10.70;;
12048;SDS011;6085;49.452;8.502;2023-03-01T10:04:26;12.95;;;10.95;;
12048;SDS011;6085;49.452;8.502;2023-03-01T10:08:34;14.18;;;11.27;;
12048;SDS011;6085;49.452;8.502;2023-03-01T10:12:40;17.48;;;11.13;;
12048;SDS011;6085;49.452;8.502;2023-03-01T10:16:46;12.43;;;11.18;;
12048;SDS011;6085;49.452;8.502;2023-03-01T10:20:55;12.65;;;10.85;;
12048;SDS011;6085;49.452;8.502;2023-03-01T10:25:00;12.65;;;11.13;;
12048;SDS011;6085;49.452;8.502;2023-03-01T10:29:05;14.63;;;12.27;;
12048;SDS011;6085;49.452;8.502;2023-03-01T10:33:10;15.07;;;11.13;;
12048;SDS011;6085;49.452;8.502;2023-03-01T10:37:20;12.95;;;11.45;;
12048;SDS011;6085;49.452;8.502;2023-03-01T10:41:25;12.95;;;11.38;;
12048;SDS011;6085;49.452;8.502;2023-03-01T10:45:32;11.75;;;10.48;;
12048;SDS011;6085;49.452;8.502;2023-03-01T10:49:35;13.52;;;11.55;;
12048;SDS011;6085;49.452;8.502;2023-03-01T10:53:40;12.20;;;10.93;;
12048;SDS011;6085;49.452;8.502;2023-03-01T10:57:43;15.80;;;11.30;;
12048;SDS011;6085;49.452;8.502;2023-03-01T11:01:45;15.98;;;11.43;;
12048;SDS011;6085;49.452;8.502;2023-03-01T11:05:51;12.23;;;10.82;;
12048;SDS011;6085;49.452;8.502;2023-03-01T11:10:06;12.63;;;10.90;;
12048;SDS011;6085;49.452;8.502;2023-03-01T11:14:13;14.90;;;11.52;;
12048;SDS011;6085;49.452;8.502;2023-03-01T11:18:19;12.40;;;11.20;;
12048;SDS011;6085;49.452;8.502;2023-03-01T11:22:22;12.15;;;10.80;;
12048;SDS011;6085;49.452;8.502;2023-03-01T11:26:25;12.82;;;11.38;;
12048;SDS011;6085;49.452;8.502;2023-03-01T11:30:31;12.82;;;10.70;;
12048;SDS011;6085;49.452;8.502;2023-03-01T11:34:40;12.18;;;10.38;;
12048;SDS011;6085;49.452;8.502;2023-03-01T11:38:45;12.65;;;11.32;;
12048;SDS011;6085;49.452;8.502;2023-03-01T11:42:53;12.82;;;11.25;;
12048;SDS011;6085;49.452;8.502;2023-03-01T11:47:12;15.05;;;11.35;;
12048;SDS011;6085;49.452;8.502;2023-03-01T11:51:25;12.38;;;10.73;;
12048;SDS011;6085;49.452;8.502;2023-03-01T11:55:44;13.00;;;10.85;;
12048;SDS011;6085;49.452;8.502;2023-03-01T12:00:13;13.18;;;11.75;;
12048;SDS011;6085;49.452;8.502;2023-03-01T12:04:43;14.57;;;10.57;;
12048;SDS011;6085;49.452;8.502;2023-03-01T12:09:02;12.80;;;11.43;;
12048;SDS011;6085;49.452;8.502;2023-03-01T12:13:23;20.33;;;11.10;;
12048;SDS011;6085;49.452;8.502;2023-03-01T12:17:42;12.35;;;10.80;;
12048;SDS011;6085;49.452;8.502;2023-03-01T12:22:09;13.13;;;11.48;;
12048;SDS011;6085;49.452;8.502;2023-03-01T12:26:25;14.15;;;10.82;;
12048;SDS011;6085;49.452;8.502;2023-03-01T12:30:33;13.85;;;11.02;;
12048;SDS011;6085;49.452;8.502;2023-03-01T12:34:49;14.38;;;11.02;;
12048;SDS011;6085;49.452;8.502;2023-03-01T12:39:11;12.15;;;10.38;;
12048;SDS011;6085;49.452;8.502;2023-03-01T12:43:24;13.30;;;10.68;;
12048;SDS011;6085;49.452;8.502;2023-03-01T12:47:45;12.35;;;10.90;;
12048;SDS011;6085;49.452;8.502;2023-03-01T12:51:58;13.68;;;11.13;;
12048;SDS011;6085;49.452;8.502;2023-03-01T12:56:05;14.23;;;11.00;;
12048;SDS011;6085;49.452;8.502;2023-03-01T13:00:17;13.27;;;11.00;;
12048;SDS011;6085;49.452;8.502;2023-03-01T13:04:29;13.20;;;10.93;;
12048;SDS011;6085;49.452;8.502;2023-03-01T13:08:42;12.55;;;9.93;;
12048;SDS011;6085;49.452;8.502;2023-03-01T13:12:53;10.73;;;9.63;;
12048;SDS011;6085;49.452;8.502;2023-03-01T13:17:03;13.15;;;10.30;;
12048;SDS011;6085;49.452;8.502;2023-03-01T13:21:06;11.57;;;10.38;;
12048;SDS011;6085;49.452;8.502;2023-03-01T13:25:15;12.38;;;10.55;;
12048;SDS011;6085;49.452;8.502;2023-03-01T13:29:25;12.02;;;10.35;;
12048;SDS011;6085;49.452;8.502;2023-03-01T13:33:39;14.25;;;10.00;;
12048;SDS011;6085;49.452;8.502;2023-03-01T13:37:42;14.48;;;10.10;;
12048;SDS011;6085;49.452;8.502;2023-03-01T13:41:49;12.30;;;9.95;;
12048;SDS011;6085;49.452;8.502;2023-03-01T13:45:53;18.77;;;10.48;;
12048;SDS011;6085;49.452;8.502;2023-03-01T13:49:56;10.65;;;9.55;;
12048;SDS011;6085;49.452;8.502;2023-03-01T13:54:00;10.75;;;9.63;;
12048;SDS011;6085;49.452;8.502;2023-03-01T13:58:04;11.95;;;9.45;;
12048;SDS011;6085;49.452;8.502;2023-03-01T14:02:15;11.63;;;9.43;;
12048;SDS011;6085;49.452;8.502;2023-03-01T14:06:20;10.93;;;9.73;;
12048;SDS011;6085;49.452;8.502;2023-03-01T14:10:23;11.10;;;9.43;;
12048;SDS011;6085;49.452;8.502;2023-03-01T14:14:43;10.13;;;9.10;;
12048;SDS011;6085;49.452;8.502;2023-03-01T14:18:54;17.80;;;10.10;;
12048;SDS011;6085;49.452;8.502;2023-03-01T14:23:08;12.35;;;9.00;;
12048;SDS011;6085;49.452;8.502;2023-03-01T14:27:13;11.15;;;8.73;;
12048;SDS011;6085;49.452;8.502;2023-03-01T14:35:51;9.70;;;8.70;;
12048;SDS011;6085;49.452;8.502;2023-03-01T14:39:54;10.50;;;8.32;;
12048;SDS011;6085;49.452;8.502;2023-03-01T14:43:58;11.07;;;8.93;;
12048;SDS011;6085;49.452;8.502;2023-03-01T14:48:04;10.38;;;8.23;;
12048;SDS011;6085;49.452;8.502;2023-03-01T14:52:16;9.45;;;8.15;;
12048;SDS011;6085;49.452;8.502;2023-03-01T14:56:20;9.63;;;8.63;;
12048;SDS011;6085;49.452;8.502;2023-03-01T15:00:23;10.27;;;8.70;;
12048;SDS011;6085;49.452;8.502;2023-03-01T15:04:27;9.20;;;7.50;;
12048;SDS011;6085;49.452;8.502;2023-03-01T15:08:31;9.07;;;7.63;;
12048;SDS011;6085;49.452;8.502;2023-03-01T15:12:35;9.48;;;8.30;;
12048;SDS011;6085;49.452;8.502;2023-03-01T15:16:38;9.13;;;7.72;;
12048;SDS011;6085;49.452;8.502;2023-03-01T15:20:42;8.48;;;7.57;;
12048;SDS011;6085;49.452;8.502;2023-03-01T15:24:48;8.60;;;7.63;;
12048;SDS011;6085;49.452;8.502;2023-03-01T15:28:51;9.65;;;7.30;;
12048;SDS011;6085;49.452;8.502;2023-03-01T15:33:17;8.43;;;7.50;;
12048;SDS011;6085;49.452;8.502;2023-03-01T15:37:39;10.18;;;7.60;;
12048;SDS011;6085;49.452;8.502;2023-03-01T15:41:47;7.63;;;6.80;;
12048;SDS011;6085;49.452;8.502;2023-03-01T15:45:55;8.27;;;7.45;;
12048;SDS011;6085;49.452;8.502;2023-03-01T15:50:02;8.70;;;7.05;;
12048;SDS011;6085;49.452;8.502;2023-03-01T15:54:06;8.35;;;6.90;;
12048;SDS011;6085;49.452;8.502;2023-03-01T15:58:15;7.93;;;7.13;;
12048;SDS011;6085;49.452;8.502;2023-03-01T16:02:22;8.60;;;7.30;;
12048;SDS011;6085;49.452;8.502;2023-03-01T16:06:24;9.85;;;7.50;;
12048;SDS011;6085;49.452;8.502;2023-03-01T16:10:28;9.02;;;6.95;;
12048;SDS011;6085;49.452;8.502;2023-03-01T16:14:31;8.07;;;6.70;;
12048;SDS011;6085;49.452;8.502;2023-03-01T16:18:33;8.07;;;7.05;;
12048;SDS011;6085;49.452;8.502;2023-03-01T16:22:35;8.75;;;6.93;;
12048;SDS011;6085;49.452;8.502;2023-03-01T16:26:39;9.43;;;6.82;;
12048;SDS011;6085;49.452;8.502;2023-03-01T16:30:44;10.02;;;7.35;;
12048;SDS011;6085;49.452;8.502;2023-03-01T16:34:48;9.50;;;7.65;;
12048;SDS011;6085;49.452;8.502;2023-03-01T16:38:50;8.93;;;7.38;;
12048;SDS011;6085;49.452;8.502;2023-03-01T16:42:54;9.43;;;7.75;;
12048;SDS011;6085;49.452;8.502;2023-03-01T16:46:59;10.55;;;7.78;;
12048;SDS011;6085;49.452;8.502;2023-03-01T16:51:01;8.55;;;7.63;;
12048;SDS011;6085;49.452;8.502;2023-03-01T16:55:04;9.57;;;7.70;;
12048;SDS011;6085;49.452;8.502;2023-03-01T16:59:10;9.82;;;7.30;;
12048;SDS011;6085;49.452;8.502;2023-03-01T17:03:12;7.90;;;6.93;;
12048;SDS011;6085;49.452;8.502;2023-03-01T17:07:17;10.32;;;7.20;;
12048;SDS011;6085;49.452;8.502;2023-03-01T17:11:19;12.93;;;7.40;;
12048;SDS011;6085;49.452;8.502;2023-03-01T17:15:23;8.88;;;6.97;;
12048;SDS011;6085;49.452;8.502;2023-03-01T17:19:24;8.63;;;7.07;;
12048;SDS011;6085;49.452;8.502;2023-03-01T17:23:27;9.02;;;6.80;;
12048;SDS011;6085;49.452;8.502;2023-03-01T17:27:30;8.68;;;6.15;;
12048;SDS011;6085;49.452;8.502;2023-03-01T17:31:35;9.27;;;6.22;;
12048;SDS011;6085;49.452;8.502;2023-03-01T17:35:37;9.10;;;7.00;;
12048;SDS011;6085;49.452;8.502;2023-03-01T17:39:39;9.40;;;6.85;;
12048;SDS011;6085;49.452;8.502;2023-03-01T17:43:41;9.93;;;6.60;;
12048;SDS011;6085;49.452;8.502;2023-03-01T17:47:44;13.45;;;8.90;;
12048;SDS011;6085;49.452;8.502;2023-03-01T17:51:46;11.85;;;8.27;;
12048;SDS011;6085;49.452;8.502;2023-03-01T17:55:48;11.52;;;8.15;;
12048;SDS011;6085;49.452;8.502;2023-03-01T17:59:53;12.25;;;8.02;;
12048;SDS011;6085;49.452;8.502;2023-03-01T18:03:56;11.48;;;7.57;;
12048;SDS011;6085;49.452;8.502;2023-03-01T18:07:58;12.23;;;7.28;;
12048;SDS011;6085;49.452;8.502;2023-03-01T18:12:00;10.35;;;7.30;;
12048;SDS011;6085;49.452;8.502;2023-03-01T18:16:03;8.95;;;7.20;;
12048;SDS011;6085;49.452;8.502;2023-03-01T18:20:08;8.90;;;7.60;;
12048;SDS011;6085;49.452;8.502;2023-03-01T18:24:12;10.98;;;7.47;;
12048;SDS011;6085;49.452;8.502;2023-03-01T18:28:14;10.23;;;6.97;;
12048;SDS011;6085;49.452;8.502;2023-03-01T18:32:15;8.30;;;6.95;;
12048;SDS011;6085;49.452;8.502;2023-03-01T18:36:20;10.02;;;7.38;;
12048;SDS011;6085;49.452;8.502;2023-03-01T18:40:24;10.45;;;7.40;;
12048;SDS011;6085;49.452;8.502;2023-03-01T18:44:25;9.60;;;7.10;;
12048;SDS011;6085;49.452;8.502;2023-03-01T18:48:27;9.55;;;7.43;;
12048;SDS011;6085;49.452;8.502;2023-03-01T18:52:30;8.88;;;7.65;;
12048;SDS011;6085;49.452;8.502;2023-03-01T18:56:33;10.20;;;7.75;;
12048;SDS011;6085;49.452;8.502;2023-03-01T19:00:35;10.65;;;7.90;;
12048;SDS011;6085;49.452;8.502;2023-03-01T19:04:36;9.30;;;7.43;;
12048;SDS011;6085;49.452;8.502;2023-03-01T19:08:41;12.65;;;8.25;;
12048;SDS011;6085;49.452;8.502;2023-03-01T19:12:43;13.82;;;8.98;;
12048;SDS011;6085;49.452;8.502;2023-03-01T19:16:45;13.05;;;8.95;;
12048;SDS011;6085;49.452;8.502;2023-03-01T19:20:47;13.23;;;8.43;;
12048;SDS011;6085;49.452;8.502;2023-03-01T19:24:50;10.90;;;8.32;;
12048;SDS011;6085;49.452;8.502;2023-03-01T19:28:51;12.30;;;9.00;;
12048;SDS011;6085;49.452;8.502;2023-03-01T19:32:55;12.57;;;8.00;;
12048;SDS011;6085;49.452;8.502;2023-03-01T19:36:56;10.98;;;8.10;;
12048;SDS011;6085;49.452;8.502;2023-03-01T19:41:02;12.20;;;8.40;;
12048;SDS011;6085;49.452;8.502;2023-03-01T19:45:05;11.55;;;8.82;;
12048;SDS011;6085;49.452;8.502;2023-03-01T19:49:08;11.30;;;8.63;;
12048;SDS011;6085;49.452;8.502;2023-03-01T19:53:10;12.65;;;8.98;;
12048;SDS011;6085;49.452;8.502;2023-03-01T19:57:13;11.88;;;8.82;;
12048;SDS011;6085;49.452;8.502;2023-03-01T20:01:16;13.02;;;8.82;;
12048;SDS011;6085;49.452;8.502;2023-03-01T20:05:19;10.15;;;8.35;;
12048;SDS011;6085;49.452;8.502;2023-03-01T20:09:21;9.70;;;8.57;;
12048;SDS011;6085;49.452;8.502;2023-03-01T20:13:24;12.32;;;8.70;;
12048;SDS011;6085;49.452;8.502;2023-03-01T20:17:26;13.02;;;8.95;;
12048;SDS011;6085;49.452;8.502;2023-03-01T20:21:27;11.98;;;9.15;;
12048;SDS011;6085;49.452;8.502;2023-03-01T20:25:29;12.52;;;8.68;;
12048;SDS011;6085;49.452;8.502;2023-03-01T20:29:32;11.57;;;8.98;;
12048;SDS011;6085;49.452;8.502;2023-03-01T20:33:34;13.20;;;9.07;;
12048;SDS011;6085;49.452;8.502;2023-03-01T20:37:36;15.18;;;9.55;;
12048;SDS011;6085;49.452;8.502;2023-03-01T20:41:38;14.30;;;9.15;;
12048;SDS011;6085;49.452;8.502;2023-03-01T20:45:42;12.65;;;9.18;;
12048;SDS011;6085;49.452;8.502;2023-03-01T20:49:44;10.88;;;8.98;;
12048;SDS011;6085;49.452;8.502;2023-03-01T20:53:45;14.10;;;8.90;;
12048;SDS011;6085;49.452;8.502;2023-03-01T20:57:48;14.23;;;9.23;;
12048;SDS011;6085;49.452;8.502;2023-03-01T21:01:51;14.38;;;9.85;;
12048;SDS011;6085;49.452;8.502;2023-03-01T21:05:53;11.25;;;8.52;;
12048;SDS011;6085;49.452;8.502;2023-03-01T21:09:56;11.35;;;8.45;;
12048;SDS011;6085;49.452;8.502;2023-03-01T21:13:58;14.45;;;10.07;;
12048;SDS011;6085;49.452;8.502;2023-03-01T21:18:01;13.05;;;9.93;;
12048;SDS011;6085;49.452;8.502;2023-03-01T21:22:03;16.05;;;9.95;;
12048;SDS011;6085;49.452;8.502;2023-03-01T21:26:06;16.02;;;10.32;;
12048;SDS011;6085;49.452;8.502;2023-03-01T21:30:10;13.63;;;9.25;;
12048;SDS011;6085;49.452;8.502;2023-03-01T21:34:14;13.93;;;9.90;;
12048;SDS011;6085;49.452;8.502;2023-03-01T21:38:15;12.77;;;9.18;;
12048;SDS011;6085;49.452;8.502;2023-03-01T21:42:17;13.45;;;9.60;;
12048;SDS011;6085;49.452;8.502;2023-03-01T21:46:20;15.20;;;10.10;;
12048;SDS011;6085;49.452;8.502;2023-03-01T21:50:24;12.55;;;9.60;;
12048;SDS011;6085;49.452;8.502;2023-03-01T21:54:26;14.73;;;10.18;;
12048;SDS011;6085;49.452;8.502;2023-03-01T21:58:28;14.63;;;9.98;;
12048;SDS011;6085;49.452;8.502;2023-03-01T22:02:30;11.75;;;9.30;;
12048;SDS011;6085;49.452;8.502;2023-03-01T22:06:34;14.98;;;9.60;;
12048;SDS011;6085;49.452;8.502;2023-03-01T22:10:39;16.33;;;10.35;;
12048;SDS011;6085;49.452;8.502;2023-03-01T22:14:42;13.23;;;9.10;;
12048;SDS011;6085;49.452;8.502;2023-03-01T22:18:44;14.10;;;9.15;;
12048;SDS011;6085;49.452;8.502;2023-03-01T22:22:48;14.93;;;10.00;;
12048;SDS011;6085;49.452;8.502;2023-03-01T22:26:50;15.35;;;10.10;;
12048;SDS011;6085;49.452;8.502;2023-03-01T22:30:53;12.90;;;10.05;;
12048;SDS011;6085;49.452;8.502;2023-03-01T22:34:55;12.43;;;9.60;;
12048;SDS011;6085;49.452;8.502;2023-03-01T22:38:58;14.55;;;10.88;;
12048;SDS011;6085;49.452;8.502;2023-03-01T22:43:01;14.00;;;10.20;;
12048;SDS011;6085;49.452;8.502;2023-03-01T22:47:02;15.23;;;10.27;;
12048;SDS011;6085;49.452;8.502;2023-03-01T22:51:04;15.38;;;10.60;;
12048;SDS011;6085;49.452;8.502;2023-03-01T22:55:08;15.50;;;10.48;;
12048;SDS011;6085;49.452;8.502;2023-03-01T22:59:11;16.10;;;10.68;;
12048;SDS011;6085;49.452;8.502;2023-03-01T23:03:14;14.18;;;10.02;;
12048;SDS011;6085;49.452;8.502;2023-03-01T23:07:16;15.65;;;10.32;;
12048;SDS011;6085;49.452;8.502;2023-03-01T23:11:20;15.50;;;10.77;;
12048;SDS011;6085;49.452;8.502;2023-03-01T23:15:22;14.63;;;10.70;;
12048;SDS011;6085;49.452;8.502;2023-03-01T23:19:24;14.70;;;10.55;;
12048;SDS011;6085;49.452;8.502;2023-03-01T23:23:26;17.73;;;11.05;;
12048;SDS011;6085;49.452;8.502;2023-03-01T23:27:29;17.55;;;10.73;;
12048;SDS011;6085;49.452;8.502;2023-03-01T23:31:31;13.82;;;9.77;;
12048;SDS011;6085;49.452;8.502;2023-03-01T23:35:36;16.08;;;11.10;;
12048;SDS011;6085;49.452;8.502;2023-03-01T23:39:38;16.80;;;11.35;;
12048;SDS011;6085;49.452;8.502;2023-03-01T23:43:43;16.98;;;10.70;;
12048;SDS011;6085;49.452;8.502;2023-03-01T23:47:46;17.50;;;10.95;;
12048;SDS011;6085;49.452;8.502;2023-03-01T23:51:48;15.80;;;11.07;;
12048;SDS011;6085;49.452;8.502;2023-03-01T23:55:50;16.52;;;11.27;;
12048;SDS011;6085;49.452;8.502;2023-03-01T23:59:55;16.60;;;11.65;;
